sensor_id;sensor_type;location;lat;lon;timestamp;P1;durP1;ratioP1;P2;durP2;ratioP2
84577;SDS011;74803;44.756;19.218;2024-03-06T00:00:05;52.03;;;35.20;;
84577;SDS011;74803;44.756;19.218;2024-03-06T00:02:34;49.45;;;32.15;;
84577;SDS011;74803;44.756;19.218;2024-03-06T00:05:01;48.35;;;32.08;;
84577;SDS011;74803;44.756;19.218;2024-03-06T00:07:26;51.97;;;33.28;;
84577;SDS011;74803;44.756;19.218;2024-03-06T00:09:52;49.63;;;34.67;;
84577;SDS011;74803;44.756;19.218;2024-03-06T00:12:18;46.55;;;28.65;;
84577;SDS011;74803;44.756;19.218;2024-03-06T00:14:44;45.35;;;27.67;;
84577;SDS011;74803;44.756;19.218;2024-03-06T00:17:10;45.03;;;29.53;;
84577;SDS011;74803;44.756;19.218;2024-03-06T00:19:35;46.60;;;26.77;;
84577;SDS011;74803;44.756;19.218;2024-03-06T00:22:01;38.53;;;25.60;;
84577;SDS011;74803;44.756;19.218;2024-03-06T00:26:53;33.60;;;24.08;;
84577;SDS011;74803;44.756;19.218;2024-03-06T00:29:19;38.50;;;26.55;;
84577;SDS011;74803;44.756;19.218;2024-03-06T00:31:45;42.08;;;28.10;;
84577;SDS011;74803;44.756;19.218;2024-03-06T00:34:12;36.83;;;27.77;;
84577;SDS011;74803;44.756;19.218;2024-03-06T00:36:41;34.55;;;23.88;;
84577;SDS011;74803;44.756;19.218;2024-03-06T00:39:08;37.47;;;25.98;;
84577;SDS011;74803;44.756;19.218;2024-03-06T00:41:34;37.38;;;24.83;;
84577;SDS011;74803;44.756;19.218;2024-03-06T00:44:01;33.13;;;23.08;;
84577;SDS011;74803;44.756;19.218;2024-03-06T00:46:27;46.22;;;27.65;;
84577;SDS011;74803;44.756;19.218;2024-03-06T00:48:53;35.83;;;22.35;;
84577;SDS011;74803;44.756;19.218;2024-03-06T00:51:18;33.40;;;22.50;;
84577;SDS011;74803;44.756;19.218;2024-03-06T00:53:44;36.30;;;24.95;;
84577;SDS011;74803;44.756;19.218;2024-03-06T00:56:10;43.15;;;25.00;;
84577;SDS011;74803;44.756;19.218;2024-03-06T00:58:36;34.88;;;20.77;;
84577;SDS011;74803;44.756;19.218;2024-03-06T01:01:02;31.70;;;23.00;;
84577;SDS011;74803;44.756;19.218;2024-03-06T01:03:27;44.15;;;25.42;;
84577;SDS011;74803;44.756;19.218;2024-03-06T01:05:53;41.73;;;24.53;;
84577;SDS011;74803;44.756;19.218;2024-03-06T01:08:19;38.87;;;24.77;;
84577;SDS011;74803;44.756;19.218;2024-03-06T01:10:44;37.90;;;25.30;;
84577;SDS011;74803;44.756;19.218;2024-03-06T01:13:10;40.58;;;24.98;;
84577;SDS011;74803;44.756;19.218;2024-03-06T01:15:36;35.50;;;23.65;;
84577;SDS011;74803;44.756;19.218;2024-03-06T01:18:03;32.60;;;19.58;;
84577;SDS011;74803;44.756;19.218;2024-03-06T01:22:55;28.27;;;17.73;;
84577;SDS011;74803;44.756;19.218;2024-03-06T01:25:21;16.83;;;11.93;;
84577;SDS011;74803;44.756;19.218;2024-03-06T01:27:48;12.82;;;9.38;;
84577;SDS011;74803;44.756;19.218;2024-03-06T01:30:14;14.80;;;9.35;;
84577;SDS011;74803;44.756;19.218;2024-03-06T01:32:40;17.08;;;11.77;;
84577;SDS011;74803;44.756;19.218;2024-03-06T01:35:06;15.38;;;9.27;;
84577;SDS011;74803;44.756;19.218;2024-03-06T01:37:32;30.20;;;20.05;;
84577;SDS011;74803;44.756;19.218;2024-03-06T01:39:57;38.63;;;24.00;;
84577;SDS011;74803;44.756;19.218;2024-03-06T01:42:23;33.80;;;22.95;;
84577;SDS011;74803;44.756;19.218;2024-03-06T01:44:49;43.33;;;27.48;;
84577;SDS011;74803;44.756;19.218;2024-03-06T01:47:15;43.70;;;27.95;;
84577;SDS011;74803;44.756;19.218;2024-03-06T01:49:40;39.20;;;26.03;;
84577;SDS011;74803;44.756;19.218;2024-03-06T01:52:07;43.85;;;23.60;;
84577;SDS011;74803;44.756;19.218;2024-03-06T01:54:37;32.22;;;19.75;;
84577;SDS011;74803;44.756;19.218;2024-03-06T02:00:20;38.20;;;22.67;;
84577;SDS011;74803;44.756;19.218;2024-03-06T02:02:46;40.95;;;26.02;;
84577;SDS011;74803;44.756;19.218;2024-03-06T02:05:11;36.95;;;24.05;;
84577;SDS011;74803;44.756;19.218;2024-03-06T02:07:38;36.60;;;22.70;;
84577;SDS011;74803;44.756;19.218;2024-03-06T02:10:07;39.80;;;23.45;;
84577;SDS011;74803;44.756;19.218;2024-03-06T02:12:35;41.33;;;25.50;;
84577;SDS011;74803;44.756;19.218;2024-03-06T02:15:01;38.75;;;25.85;;
84577;SDS011;74803;44.756;19.218;2024-03-06T02:17:28;43.05;;;26.02;;
84577;SDS011;74803;44.756;19.218;2024-03-06T02:19:55;48.42;;;27.90;;
84577;SDS011;74803;44.756;19.218;2024-03-06T02:22:21;46.58;;;29.25;;
84577;SDS011;74803;44.756;19.218;2024-03-06T02:24:47;50.78;;;31.70;;
84577;SDS011;74803;44.756;19.218;2024-03-06T02:27:14;53.28;;;32.05;;
84577;SDS011;74803;44.756;19.218;2024-03-06T02:29:41;60.72;;;36.58;;
84577;SDS011;74803;44.756;19.218;2024-03-06T02:32:07;52.08;;;33.80;;
84577;SDS011;74803;44.756;19.218;2024-03-06T02:34:33;52.17;;;33.78;;
84577;SDS011;74803;44.756;19.218;2024-03-06T02:36:59;63.80;;;36.50;;
84577;SDS011;74803;44.756;19.218;2024-03-06T02:39:25;54.83;;;34.10;;
84577;SDS011;74803;44.756;19.218;2024-03-06T02:41:56;59.90;;;38.00;;
84577;SDS011;74803;44.756;19.218;2024-03-06T02:44:26;61.53;;;35.90;;
84577;SDS011;74803;44.756;19.218;2024-03-06T02:46:52;57.50;;;33.20;;
84577;SDS011;74803;44.756;19.218;2024-03-06T02:49:23;51.80;;;34.45;;
84577;SDS011;74803;44.756;19.218;2024-03-06T02:51:49;56.93;;;34.43;;
84577;SDS011;74803;44.756;19.218;2024-03-06T02:54:18;53.53;;;33.35;;
84577;SDS011;74803;44.756;19.218;2024-03-06T02:56:44;58.58;;;36.92;;
84577;SDS011;74803;44.756;19.218;2024-03-06T02:59:10;62.67;;;36.90;;
84577;SDS011;74803;44.756;19.218;2024-03-06T03:01:35;56.43;;;36.07;;
84577;SDS011;74803;44.756;19.218;2024-03-06T03:04:03;61.33;;;38.10;;
84577;SDS011;74803;44.756;19.218;2024-03-06T03:06:31;65.05;;;36.58;;
84577;SDS011;74803;44.756;19.218;2024-03-06T03:08:57;62.05;;;36.70;;
84577;SDS011;74803;44.756;19.218;2024-03-06T03:11:23;63.03;;;34.93;;
84577;SDS011;74803;44.756;19.218;2024-03-06T03:13:48;70.93;;;36.57;;
84577;SDS011;74803;44.756;19.218;2024-03-06T03:16:20;188.53;;;127.10;;
84577;SDS011;74803;44.756;19.218;2024-03-06T03:18:45;70.95;;;42.50;;
84577;SDS011;74803;44.756;19.218;2024-03-06T03:21:13;95.88;;;57.40;;
84577;SDS011;74803;44.756;19.218;2024-03-06T03:23:39;156.35;;;84.78;;
84577;SDS011;74803;44.756;19.218;2024-03-06T03:26:07;280.77;;;152.95;;
84577;SDS011;74803;44.756;19.218;2024-03-06T03:28:38;84.65;;;49.38;;
84577;SDS011;74803;44.756;19.218;2024-03-06T03:31:09;127.88;;;98.28;;
84577;SDS011;74803;44.756;19.218;2024-03-06T03:33:38;62.78;;;39.42;;
84577;SDS011;74803;44.756;19.218;2024-03-06T03:36:05;73.30;;;46.85;;
84577;SDS011;74803;44.756;19.218;2024-03-06T03:38:34;65.47;;;41.45;;
84577;SDS011;74803;44.756;19.218;2024-03-06T03:41:09;127.07;;;68.28;;
84577;SDS011;74803;44.756;19.218;2024-03-06T03:43:38;125.78;;;68.30;;
84577;SDS011;74803;44.756;19.218;2024-03-06T03:46:04;67.47;;;36.65;;
84577;SDS011;74803;44.756;19.218;2024-03-06T03:48:31;461.58;;;294.67;;
84577;SDS011;74803;44.756;19.218;2024-03-06T03:51:02;229.93;;;155.13;;
84577;SDS011;74803;44.756;19.218;2024-03-06T03:53:31;101.10;;;68.57;;
84577;SDS011;74803;44.756;19.218;2024-03-06T03:56:01;109.75;;;81.82;;
84577;SDS011;74803;44.756;19.218;2024-03-06T03:58:30;105.90;;;75.38;;
84577;SDS011;74803;44.756;19.218;2024-03-06T04:00:56;75.78;;;56.00;;
84577;SDS011;74803;44.756;19.218;2024-03-06T04:03:21;63.10;;;43.03;;
84577;SDS011;74803;44.756;19.218;2024-03-06T04:05:50;281.63;;;161.48;;
84577;SDS011;74803;44.756;19.218;2024-03-06T04:08:17;92.65;;;60.15;;
84577;SDS011;74803;44.756;19.218;2024-03-06T04:10:45;57.35;;;39.10;;
84577;SDS011;74803;44.756;19.218;2024-03-06T04:13:11;63.67;;;37.80;;
84577;SDS011;74803;44.756;19.218;2024-03-06T04:15:39;61.13;;;38.70;;
84577;SDS011;74803;44.756;19.218;2024-03-06T04:18:05;67.78;;;52.17;;
84577;SDS011;74803;44.756;19.218;2024-03-06T04:20:31;55.83;;;37.78;;
84577;SDS011;74803;44.756;19.218;2024-03-06T04:22:56;65.30;;;44.30;;
84577;SDS011;74803;44.756;19.218;2024-03-06T04:25:22;62.10;;;43.00;;
84577;SDS011;74803;44.756;19.218;2024-03-06T04:27:49;74.18;;;42.20;;
84577;SDS011;74803;44.756;19.218;2024-03-06T04:30:16;65.65;;;42.15;;
84577;SDS011;74803;44.756;19.218;2024-03-06T04:32:42;69.70;;;43.73;;
84577;SDS011;74803;44.756;19.218;2024-03-06T04:35:07;95.33;;;73.47;;
84577;SDS011;74803;44.756;19.218;2024-03-06T04:37:35;285.40;;;187.68;;
84577;SDS011;74803;44.756;19.218;2024-03-06T04:40:00;164.35;;;97.70;;
84577;SDS011;74803;44.756;19.218;2024-03-06T04:42:28;120.75;;;75.18;;
84577;SDS011;74803;44.756;19.218;2024-03-06T04:44:53;61.35;;;39.05;;
84577;SDS011;74803;44.756;19.218;2024-03-06T04:47:19;73.70;;;59.70;;
84577;SDS011;74803;44.756;19.218;2024-03-06T04:49:44;61.97;;;40.33;;
84577;SDS011;74803;44.756;19.218;2024-03-06T04:52:10;62.65;;;40.88;;
84577;SDS011;74803;44.756;19.218;2024-03-06T04:54:36;94.70;;;68.22;;
84577;SDS011;74803;44.756;19.218;2024-03-06T04:57:02;72.85;;;46.42;;
84577;SDS011;74803;44.756;19.218;2024-03-06T04:59:28;88.22;;;56.10;;
84577;SDS011;74803;44.756;19.218;2024-03-06T05:01:53;130.52;;;96.55;;
84577;SDS011;74803;44.756;19.218;2024-03-06T05:04:19;78.70;;;48.77;;
84577;SDS011;74803;44.756;19.218;2024-03-06T05:06:45;67.10;;;42.05;;
84577;SDS011;74803;44.756;19.218;2024-03-06T05:09:11;73.35;;;43.45;;
84577;SDS011;74803;44.756;19.218;2024-03-06T05:11:37;72.03;;;45.95;;
84577;SDS011;74803;44.756;19.218;2024-03-06T05:14:04;83.30;;;51.28;;
84577;SDS011;74803;44.756;19.218;2024-03-06T05:16:29;91.68;;;60.70;;
84577;SDS011;74803;44.756;19.218;2024-03-06T05:18:55;80.40;;;52.60;;
84577;SDS011;74803;44.756;19.218;2024-03-06T05:21:21;93.05;;;49.28;;
84577;SDS011;74803;44.756;19.218;2024-03-06T05:23:49;82.05;;;54.03;;
84577;SDS011;74803;44.756;19.218;2024-03-06T05:26:15;75.90;;;48.93;;
84577;SDS011;74803;44.756;19.218;2024-03-06T05:28:41;85.63;;;56.15;;
84577;SDS011;74803;44.756;19.218;2024-03-06T05:31:16;88.88;;;52.10;;
84577;SDS011;74803;44.756;19.218;2024-03-06T05:36:09;84.10;;;48.78;;
84577;SDS011;74803;44.756;19.218;2024-03-06T05:38:35;82.13;;;48.70;;
84577;SDS011;74803;44.756;19.218;2024-03-06T05:41:00;92.57;;;55.83;;
84577;SDS011;74803;44.756;19.218;2024-03-06T05:43:27;85.97;;;49.40;;
84577;SDS011;74803;44.756;19.218;2024-03-06T05:45:53;138.10;;;102.53;;
84577;SDS011;74803;44.756;19.218;2024-03-06T05:48:18;89.68;;;59.08;;
84577;SDS011;74803;44.756;19.218;2024-03-06T05:50:44;85.20;;;65.30;;
84577;SDS011;74803;44.756;19.218;2024-03-06T05:53:09;91.20;;;49.90;;
84577;SDS011;74803;44.756;19.218;2024-03-06T05:55:36;86.22;;;54.30;;
84577;SDS011;74803;44.756;19.218;2024-03-06T05:58:02;97.40;;;66.80;;
84577;SDS011;74803;44.756;19.218;2024-03-06T06:00:28;139.38;;;91.30;;
84577;SDS011;74803;44.756;19.218;2024-03-06T06:02:53;185.00;;;126.03;;
84577;SDS011;74803;44.756;19.218;2024-03-06T06:05:19;141.80;;;101.63;;
84577;SDS011;74803;44.756;19.218;2024-03-06T06:07:48;157.60;;;109.05;;
84577;SDS011;74803;44.756;19.218;2024-03-06T06:10:14;135.05;;;103.72;;
84577;SDS011;74803;44.756;19.218;2024-03-06T06:12:40;107.78;;;71.10;;
84577;SDS011;74803;44.756;19.218;2024-03-06T06:15:06;101.70;;;70.78;;
84577;SDS011;74803;44.756;19.218;2024-03-06T06:19:59;95.80;;;57.90;;
84577;SDS011;74803;44.756;19.218;2024-03-06T06:22:27;107.20;;;67.00;;
84577;SDS011;74803;44.756;19.218;2024-03-06T06:24:53;88.47;;;54.83;;
84577;SDS011;74803;44.756;19.218;2024-03-06T06:27:20;86.22;;;56.40;;
84577;SDS011;74803;44.756;19.218;2024-03-06T06:29:46;73.65;;;49.20;;
84577;SDS011;74803;44.756;19.218;2024-03-06T06:32:11;103.75;;;58.78;;
84577;SDS011;74803;44.756;19.218;2024-03-06T06:34:37;78.65;;;57.33;;
84577;SDS011;74803;44.756;19.218;2024-03-06T06:37:03;67.65;;;50.38;;
84577;SDS011;74803;44.756;19.218;2024-03-06T06:39:28;73.70;;;52.37;;
84577;SDS011;74803;44.756;19.218;2024-03-06T06:41:54;67.10;;;40.90;;
84577;SDS011;74803;44.756;19.218;2024-03-06T06:44:19;81.17;;;60.83;;
84577;SDS011;74803;44.756;19.218;2024-03-06T06:46:45;61.07;;;39.40;;
84577;SDS011;74803;44.756;19.218;2024-03-06T06:49:11;63.57;;;40.13;;
84577;SDS011;74803;44.756;19.218;2024-03-06T06:51:36;60.30;;;40.77;;
84577;SDS011;74803;44.756;19.218;2024-03-06T06:54:03;73.45;;;46.45;;
84577;SDS011;74803;44.756;19.218;2024-03-06T06:56:29;80.32;;;54.17;;
84577;SDS011;74803;44.756;19.218;2024-03-06T06:58:56;56.58;;;40.15;;
84577;SDS011;74803;44.756;19.218;2024-03-06T07:01:21;61.85;;;38.80;;
84577;SDS011;74803;44.756;19.218;2024-03-06T07:03:47;74.63;;;49.60;;
84577;SDS011;74803;44.756;19.218;2024-03-06T07:06:13;73.35;;;52.58;;
84577;SDS011;74803;44.756;19.218;2024-03-06T07:08:38;75.80;;;51.83;;
84577;SDS011;74803;44.756;19.218;2024-03-06T07:11:04;78.45;;;52.83;;
84577;SDS011;74803;44.756;19.218;2024-03-06T07:13:30;70.97;;;51.40;;
84577;SDS011;74803;44.756;19.218;2024-03-06T07:15:55;87.88;;;61.45;;
84577;SDS011;74803;44.756;19.218;2024-03-06T07:18:21;71.63;;;52.37;;
84577;SDS011;74803;44.756;19.218;2024-03-06T07:20:47;67.03;;;51.30;;
84577;SDS011;74803;44.756;19.218;2024-03-06T07:23:15;67.00;;;48.58;;
84577;SDS011;74803;44.756;19.218;2024-03-06T07:25:41;71.18;;;56.70;;
84577;SDS011;74803;44.756;19.218;2024-03-06T07:28:06;70.63;;;53.58;;
84577;SDS011;74803;44.756;19.218;2024-03-06T07:30:32;56.93;;;40.87;;
84577;SDS011;74803;44.756;19.218;2024-03-06T07:32:57;47.13;;;30.33;;
84577;SDS011;74803;44.756;19.218;2024-03-06T07:35:23;44.60;;;31.00;;
84577;SDS011;74803;44.756;19.218;2024-03-06T07:37:49;44.55;;;28.88;;
84577;SDS011;74803;44.756;19.218;2024-03-06T07:40:14;52.83;;;30.08;;
84577;SDS011;74803;44.756;19.218;2024-03-06T07:42:40;42.97;;;29.23;;
84577;SDS011;74803;44.756;19.218;2024-03-06T07:45:06;42.50;;;31.00;;
84577;SDS011;74803;44.756;19.218;2024-03-06T07:47:35;47.20;;;29.67;;
84577;SDS011;74803;44.756;19.218;2024-03-06T07:50:03;45.97;;;32.65;;
84577;SDS011;74803;44.756;19.218;2024-03-06T07:52:32;49.40;;;30.33;;
84577;SDS011;74803;44.756;19.218;2024-03-06T07:54:58;50.83;;;33.50;;
84577;SDS011;74803;44.756;19.218;2024-03-06T07:57:23;61.07;;;38.17;;
84577;SDS011;74803;44.756;19.218;2024-03-06T07:59:49;43.50;;;27.53;;
84577;SDS011;74803;44.756;19.218;2024-03-06T08:02:16;35.03;;;23.38;;
84577;SDS011;74803;44.756;19.218;2024-03-06T08:04:42;43.50;;;28.30;;
84577;SDS011;74803;44.756;19.218;2024-03-06T08:07:08;42.27;;;28.30;;
84577;SDS011;74803;44.756;19.218;2024-03-06T08:09:33;47.70;;;27.08;;
84577;SDS011;74803;44.756;19.218;2024-03-06T08:11:59;44.13;;;28.33;;
84577;SDS011;74803;44.756;19.218;2024-03-06T08:14:24;39.50;;;26.58;;
84577;SDS011;74803;44.756;19.218;2024-03-06T08:16:50;35.80;;;24.60;;
84577;SDS011;74803;44.756;19.218;2024-03-06T08:19:16;41.60;;;25.83;;
84577;SDS011;74803;44.756;19.218;2024-03-06T08:21:41;46.17;;;29.70;;
84577;SDS011;74803;44.756;19.218;2024-03-06T08:24:07;40.47;;;27.50;;
84577;SDS011;74803;44.756;19.218;2024-03-06T08:26:33;40.30;;;25.70;;
84577;SDS011;74803;44.756;19.218;2024-03-06T08:28:58;33.78;;;20.73;;
84577;SDS011;74803;44.756;19.218;2024-03-06T08:31:25;35.47;;;22.83;;
84577;SDS011;74803;44.756;19.218;2024-03-06T08:33:56;40.97;;;27.45;;
84577;SDS011;74803;44.756;19.218;2024-03-06T08:36:28;37.40;;;28.25;;
84577;SDS011;74803;44.756;19.218;2024-03-06T08:38:55;40.17;;;21.10;;
84577;SDS011;74803;44.756;19.218;2024-03-06T08:41:21;33.53;;;21.42;;
84577;SDS011;74803;44.756;19.218;2024-03-06T08:43:46;38.15;;;26.17;;
84577;SDS011;74803;44.756;19.218;2024-03-06T08:46:12;34.38;;;23.15;;
84577;SDS011;74803;44.756;19.218;2024-03-06T08:48:38;37.97;;;22.70;;
84577;SDS011;74803;44.756;19.218;2024-03-06T08:51:04;40.50;;;24.52;;
84577;SDS011;74803;44.756;19.218;2024-03-06T08:53:35;37.25;;;22.88;;
84577;SDS011;74803;44.756;19.218;2024-03-06T08:58:27;36.58;;;23.02;;
84577;SDS011;74803;44.756;19.218;2024-03-06T09:00:53;35.37;;;21.77;;
84577;SDS011;74803;44.756;19.218;2024-03-06T09:03:21;42.00;;;23.67;;
84577;SDS011;74803;44.756;19.218;2024-03-06T09:05:48;33.10;;;23.25;;
84577;SDS011;74803;44.756;19.218;2024-03-06T09:08:14;34.63;;;23.33;;
84577;SDS011;74803;44.756;19.218;2024-03-06T09:10:39;37.50;;;26.13;;
84577;SDS011;74803;44.756;19.218;2024-03-06T09:13:05;40.08;;;25.48;;
84577;SDS011;74803;44.756;19.218;2024-03-06T09:15:31;38.37;;;26.70;;
84577;SDS011;74803;44.756;19.218;2024-03-06T09:17:56;35.47;;;22.53;;
84577;SDS011;74803;44.756;19.218;2024-03-06T09:20:22;38.05;;;24.48;;
84577;SDS011;74803;44.756;19.218;2024-03-06T09:22:49;36.95;;;22.48;;
84577;SDS011;74803;44.756;19.218;2024-03-06T09:25:19;30.40;;;22.25;;
84577;SDS011;74803;44.756;19.218;2024-03-06T09:27:44;36.80;;;23.52;;
84577;SDS011;74803;44.756;19.218;2024-03-06T09:30:12;32.22;;;22.67;;
84577;SDS011;74803;44.756;19.218;2024-03-06T09:32:38;33.08;;;21.40;;
84577;SDS011;74803;44.756;19.218;2024-03-06T09:35:06;34.78;;;24.80;;
84577;SDS011;74803;44.756;19.218;2024-03-06T09:37:31;32.55;;;21.95;;
84577;SDS011;74803;44.756;19.218;2024-03-06T09:39:57;36.00;;;25.50;;
84577;SDS011;74803;44.756;19.218;2024-03-06T09:42:23;30.63;;;22.30;;
84577;SDS011;74803;44.756;19.218;2024-03-06T09:44:50;29.75;;;20.98;;
84577;SDS011;74803;44.756;19.218;2024-03-06T09:47:15;28.33;;;21.92;;
84577;SDS011;74803;44.756;19.218;2024-03-06T09:49:52;35.22;;;22.58;;
84577;SDS011;74803;44.756;19.218;2024-03-06T09:52:20;28.40;;;21.75;;
84577;SDS011;74803;44.756;19.218;2024-03-06T09:57:12;28.27;;;21.17;;
84577;SDS011;74803;44.756;19.218;2024-03-06T09:59:40;33.15;;;21.90;;
84577;SDS011;74803;44.756;19.218;2024-03-06T10:02:51;31.98;;;22.98;;
84577;SDS011;74803;44.756;19.218;2024-03-06T10:05:02;31.75;;;22.08;;
84577;SDS011;74803;44.756;19.218;2024-03-06T10:09:58;29.40;;;21.50;;
84577;SDS011;74803;44.756;19.218;2024-03-06T10:12:25;26.73;;;19.23;;
84577;SDS011;74803;44.756;19.218;2024-03-06T10:15:06;27.20;;;19.52;;
84577;SDS011;74803;44.756;19.218;2024-03-06T10:17:35;25.83;;;19.10;;
84577;SDS011;74803;44.756;19.218;2024-03-06T10:20:01;29.17;;;19.13;;
84577;SDS011;74803;44.756;19.218;2024-03-06T10:22:30;32.15;;;19.70;;
84577;SDS011;74803;44.756;19.218;2024-03-06T10:24:56;32.22;;;23.40;;
84577;SDS011;74803;44.756;19.218;2024-03-06T10:27:22;32.03;;;22.27;;
84577;SDS011;74803;44.756;19.218;2024-03-06T10:30:00;25.08;;;19.17;;
84577;SDS011;74803;44.756;19.218;2024-03-06T10:32:27;30.70;;;19.98;;
84577;SDS011;74803;44.756;19.218;2024-03-06T10:34:52;27.20;;;20.92;;
84577;SDS011;74803;44.756;19.218;2024-03-06T10:37:18;26.15;;;19.65;;
84577;SDS011;74803;44.756;19.218;2024-03-06T10:39:47;29.15;;;18.88;;
84577;SDS011;74803;44.756;19.218;2024-03-06T10:42:20;28.40;;;17.40;;
84577;SDS011;74803;44.756;19.218;2024-03-06T10:44:50;26.20;;;18.83;;
84577;SDS011;74803;44.756;19.218;2024-03-06T10:47:18;28.90;;;19.20;;
84577;SDS011;74803;44.756;19.218;2024-03-06T10:49:44;24.35;;;17.45;;
84577;SDS011;74803;44.756;19.218;2024-03-06T10:52:13;24.25;;;18.08;;
84577;SDS011;74803;44.756;19.218;2024-03-06T10:54:42;21.25;;;17.95;;
84577;SDS011;74803;44.756;19.218;2024-03-06T10:57:11;27.20;;;19.35;;
84577;SDS011;74803;44.756;19.218;2024-03-06T10:59:37;24.23;;;18.25;;
84577;SDS011;74803;44.756;19.218;2024-03-06T11:04:30;23.85;;;16.85;;
84577;SDS011;74803;44.756;19.218;2024-03-06T11:07:02;22.63;;;16.55;;
84577;SDS011;74803;44.756;19.218;2024-03-06T11:09:36;25.05;;;18.48;;
84577;SDS011;74803;44.756;19.218;2024-03-06T11:12:06;20.90;;;16.58;;
84577;SDS011;74803;44.756;19.218;2024-03-06T11:14:33;23.08;;;16.23;;
84577;SDS011;74803;44.756;19.218;2024-03-06T11:17:03;22.90;;;17.30;;
84577;SDS011;74803;44.756;19.218;2024-03-06T11:28:30;18.75;;;16.05;;
84577;SDS011;74803;44.756;19.218;2024-03-06T11:31:09;20.65;;;16.70;;
84577;SDS011;74803;44.756;19.218;2024-03-06T11:33:39;27.58;;;18.52;;
84577;SDS011;74803;44.756;19.218;2024-03-06T11:36:15;25.20;;;17.55;;
84577;SDS011;74803;44.756;19.218;2024-03-06T11:39:04;40.17;;;25.40;;
84577;SDS011;74803;44.756;19.218;2024-03-06T11:44:17;40.28;;;24.00;;
84577;SDS011;74803;44.756;19.218;2024-03-06T11:49:17;66.43;;;35.28;;
84577;SDS011;74803;44.756;19.218;2024-03-06T11:51:47;20.27;;;14.10;;
84577;SDS011;74803;44.756;19.218;2024-03-06T11:54:13;19.80;;;17.02;;
84577;SDS011;74803;44.756;19.218;2024-03-06T11:56:40;23.63;;;17.90;;
84577;SDS011;74803;44.756;19.218;2024-03-06T11:59:07;19.08;;;14.52;;
84577;SDS011;74803;44.756;19.218;2024-03-06T12:01:35;22.75;;;16.25;;
84577;SDS011;74803;44.756;19.218;2024-03-06T12:04:03;18.67;;;14.13;;
84577;SDS011;74803;44.756;19.218;2024-03-06T12:06:32;32.40;;;19.83;;
84577;SDS011;74803;44.756;19.218;2024-03-06T12:09:03;16.05;;;14.32;;
84577;SDS011;74803;44.756;19.218;2024-03-06T12:11:29;19.55;;;14.70;;
84577;SDS011;74803;44.756;19.218;2024-03-06T12:13:56;25.75;;;17.02;;
84577;SDS011;74803;44.756;19.218;2024-03-06T12:16:22;33.63;;;20.02;;
84577;SDS011;74803;44.756;19.218;2024-03-06T12:18:57;12.73;;;10.38;;
84577;SDS011;74803;44.756;19.218;2024-03-06T12:21:34;13.98;;;10.10;;
84577;SDS011;74803;44.756;19.218;2024-03-06T12:24:04;14.75;;;10.77;;
84577;SDS011;74803;44.756;19.218;2024-03-06T12:26:39;14.80;;;10.82;;
84577;SDS011;74803;44.756;19.218;2024-03-06T12:29:11;13.98;;;12.02;;
84577;SDS011;74803;44.756;19.218;2024-03-06T12:34:05;16.60;;;12.82;;
84577;SDS011;74803;44.756;19.218;2024-03-06T12:36:31;20.10;;;14.80;;
84577;SDS011;74803;44.756;19.218;2024-03-06T12:38:59;25.52;;;17.13;;
84577;SDS011;74803;44.756;19.218;2024-03-06T12:41:28;15.10;;;11.52;;
84577;SDS011;74803;44.756;19.218;2024-03-06T12:43:58;18.60;;;11.00;;
84577;SDS011;74803;44.756;19.218;2024-03-06T12:46:51;13.60;;;10.40;;
84577;SDS011;74803;44.756;19.218;2024-03-06T12:49:18;18.80;;;13.90;;
84577;SDS011;74803;44.756;19.218;2024-03-06T12:51:44;10.43;;;9.10;;
84577;SDS011;74803;44.756;19.218;2024-03-06T12:54:10;13.57;;;9.57;;
84577;SDS011;74803;44.756;19.218;2024-03-06T12:56:37;14.65;;;11.45;;
84577;SDS011;74803;44.756;19.218;2024-03-06T12:59:02;12.20;;;10.93;;
84577;SDS011;74803;44.756;19.218;2024-03-06T13:01:28;12.35;;;10.40;;
84577;SDS011;74803;44.756;19.218;2024-03-06T13:03:55;15.82;;;13.00;;
84577;SDS011;74803;44.756;19.218;2024-03-06T13:06:22;13.30;;;10.45;;
84577;SDS011;74803;44.756;19.218;2024-03-06T13:08:47;11.90;;;10.35;;
84577;SDS011;74803;44.756;19.218;2024-03-06T13:11:16;13.40;;;9.38;;
84577;SDS011;74803;44.756;19.218;2024-03-06T13:13:42;15.30;;;8.93;;
84577;SDS011;74803;44.756;19.218;2024-03-06T13:16:12;16.63;;;10.45;;
84577;SDS011;74803;44.756;19.218;2024-03-06T13:18:38;14.90;;;10.68;;
84577;SDS011;74803;44.756;19.218;2024-03-06T13:21:03;15.90;;;10.07;;
84577;SDS011;74803;44.756;19.218;2024-03-06T13:23:29;10.77;;;9.27;;
84577;SDS011;74803;44.756;19.218;2024-03-06T13:25:56;17.92;;;13.02;;
84577;SDS011;74803;44.756;19.218;2024-03-06T13:28:24;8.98;;;7.53;;
84577;SDS011;74803;44.756;19.218;2024-03-06T13:30:52;12.40;;;8.43;;
84577;SDS011;74803;44.756;19.218;2024-03-06T13:33:37;9.05;;;7.45;;
84577;SDS011;74803;44.756;19.218;2024-03-06T13:36:03;10.43;;;8.35;;
84577;SDS011;74803;44.756;19.218;2024-03-06T13:38:29;9.93;;;7.38;;
84577;SDS011;74803;44.756;19.218;2024-03-06T13:40:54;12.25;;;8.30;;
84577;SDS011;74803;44.756;19.218;2024-03-06T13:43:20;10.18;;;8.07;;
84577;SDS011;74803;44.756;19.218;2024-03-06T13:45:49;16.15;;;12.05;;
84577;SDS011;74803;44.756;19.218;2024-03-06T13:48:15;14.82;;;8.32;;
84577;SDS011;74803;44.756;19.218;2024-03-06T13:53:11;17.33;;;10.82;;
84577;SDS011;74803;44.756;19.218;2024-03-06T13:55:37;13.57;;;10.77;;
84577;SDS011;74803;44.756;19.218;2024-03-06T14:00:31;12.70;;;8.23;;
84577;SDS011;74803;44.756;19.218;2024-03-06T14:06:02;13.05;;;9.43;;
84577;SDS011;74803;44.756;19.218;2024-03-06T14:08:33;13.57;;;9.70;;
84577;SDS011;74803;44.756;19.218;2024-03-06T14:10:59;14.23;;;10.45;;
84577;SDS011;74803;44.756;19.218;2024-03-06T14:13:24;15.70;;;10.45;;
84577;SDS011;74803;44.756;19.218;2024-03-06T14:15:50;11.23;;;8.25;;
84577;SDS011;74803;44.756;19.218;2024-03-06T14:18:16;10.90;;;8.07;;
84577;SDS011;74803;44.756;19.218;2024-03-06T14:20:41;9.43;;;8.07;;
84577;SDS011;74803;44.756;19.218;2024-03-06T14:23:08;11.23;;;7.22;;
84577;SDS011;74803;44.756;19.218;2024-03-06T14:25:34;11.13;;;7.75;;
84577;SDS011;74803;44.756;19.218;2024-03-06T14:28:02;12.60;;;7.88;;
84577;SDS011;74803;44.756;19.218;2024-03-06T14:30:29;9.98;;;7.40;;
84577;SDS011;74803;44.756;19.218;2024-03-06T14:32:55;12.10;;;9.23;;
84577;SDS011;74803;44.756;19.218;2024-03-06T14:37:46;12.13;;;7.75;;
84577;SDS011;74803;44.756;19.218;2024-03-06T14:40:14;12.25;;;7.75;;
84577;SDS011;74803;44.756;19.218;2024-03-06T14:42:40;17.90;;;8.57;;
84577;SDS011;74803;44.756;19.218;2024-03-06T14:45:07;11.13;;;7.60;;
84577;SDS011;74803;44.756;19.218;2024-03-06T14:47:34;11.30;;;8.35;;
84577;SDS011;74803;44.756;19.218;2024-03-06T14:49:59;12.88;;;7.45;;
84577;SDS011;74803;44.756;19.218;2024-03-06T14:52:25;11.07;;;8.32;;
84577;SDS011;74803;44.756;19.218;2024-03-06T14:54:51;11.93;;;7.82;;
84577;SDS011;74803;44.756;19.218;2024-03-06T14:57:16;17.48;;;10.25;;